Main page
METAR-TAF:

METAR-TAF

Airports :

Asunción, Paraguay

Silvio Pettirossi International Airport

latitude: 25-16S, longitude: 057-38W, elevation: 101 m

Current weather observation

The report was made 26 minutes ago, at 23:00 UTC
Calm wind
Temperature 21°C
Humidity 69%
Pressure 1014 hPa
Visibility: 8000 m

METAR: SGAS 172300Z 00000KT 8000 NSC 21/15 Q1014

Time: 19:26 (23:26 UTC)

Forecast

The report was made 7 hours and 11 minutes ago, at 16:15 UTC
Forecast valid from 17 at 18 UTC to 18 at 18 UTC
Wind 5 kt from variable directions
Visibility 10 km or more
Scattered clouds at a height of 3300 ft
Probability 30% :
Temporary
from 17 at 21 UTC to 17 at 23 UTC
Visibility: 8000 m
Becoming
from 18 at 03 UTC to 18 at 07 UTC
Wind 5 kt from the South/Southeast
Visibility 10 km or more
no clouds below 1500 m and no cumulonimbus

TAF: SGAS 171615Z 1718/1818 VRB05KT 9999 SCT033 TX29/1718Z TN16/1810Z PROB30 TEMPO 1721/1723 8000 NSC BECMG 1803/1807 15005KT CAVOK

Weather observations and forecasts of more than 4000 airports (METAR and TAF reports).

The available stations are represented by yellow and red dots on the map.

Hover mouse over dot to see the name of the station.

Then click to see weather observations and forecasts.

To change the map : click on the green buttons with a black cross to zoom in, on the green button with a dash to zoom out, or on the green arrows for adjacent maps.


METAR-TAF: